sensor_id;sensor_type;location;lat;lon;timestamp;pressure;altitude;pressure_sealevel;temperature;humidity
34983;BME280;21187;50.976;13.720;2023-05-22T00:02:34;98283.22;;;20.23;43.88
34983;BME280;21187;50.976;13.720;2023-05-22T00:07:43;98268.78;;;20.15;43.91
34983;BME280;21187;50.976;13.720;2023-05-22T00:12:46;98271.63;;;20.08;44.20
34983;BME280;21187;50.976;13.720;2023-05-22T00:17:50;98274.88;;;19.99;44.31
34983;BME280;21187;50.976;13.720;2023-05-22T00:22:54;98271.03;;;19.93;44.54
34983;BME280;21187;50.976;13.720;2023-05-22T00:27:57;98267.59;;;19.82;44.66
34983;BME280;21187;50.976;13.720;2023-05-22T00:32:59;98268.91;;;19.66;45.01
34983;BME280;21187;50.976;13.720;2023-05-22T00:38:02;98261.19;;;19.54;45.38
34983;BME280;21187;50.976;13.720;2023-05-22T00:43:06;98255.69;;;19.54;45.55
34983;BME280;21187;50.976;13.720;2023-05-22T00:48:10;98261.88;;;19.65;45.42
34983;BME280;21187;50.976;13.720;2023-05-22T00:53:13;98257.03;;;19.76;45.40
34983;BME280;21187;50.976;13.720;2023-05-22T00:58:17;98249.16;;;19.78;45.51
34983;BME280;21187;50.976;13.720;2023-05-22T01:03:20;98253.09;;;19.81;45.40
34983;BME280;21187;50.976;13.720;2023-05-22T01:08:28;98253.88;;;19.82;45.60
34983;BME280;21187;50.976;13.720;2023-05-22T01:14:03;98250.34;;;19.77;45.20
34983;BME280;21187;50.976;13.720;2023-05-22T01:35:15;98252.03;;;19.26;46.31
34983;BME280;21187;50.976;13.720;2023-05-22T01:40:20;98253.66;;;19.20;46.38
34983;BME280;21187;50.976;13.720;2023-05-22T01:45:22;98258.38;;;19.19;46.62
34983;BME280;21187;50.976;13.720;2023-05-22T01:50:24;98267.03;;;19.18;46.58
34983;BME280;21187;50.976;13.720;2023-05-22T01:55:41;98256.84;;;19.15;46.55
34983;BME280;21187;50.976;13.720;2023-05-22T02:00:46;98265.56;;;19.02;46.75
34983;BME280;21187;50.976;13.720;2023-05-22T02:05:53;98262.53;;;18.86;47.25
34983;BME280;21187;50.976;13.720;2023-05-22T02:10:56;98259.44;;;18.80;47.39
34983;BME280;21187;50.976;13.720;2023-05-22T02:16:00;98260.66;;;18.72;47.69
34983;BME280;21187;50.976;13.720;2023-05-22T02:21:02;98254.06;;;18.62;47.82
34983;BME280;21187;50.976;13.720;2023-05-22T02:26:09;98259.59;;;18.55;48.00
34983;BME280;21187;50.976;13.720;2023-05-22T02:31:11;98252.19;;;18.52;48.26
34983;BME280;21187;50.976;13.720;2023-05-22T02:36:14;98251.81;;;18.46;48.25
34983;BME280;21187;50.976;13.720;2023-05-22T02:41:16;98252.63;;;18.39;48.26
34983;BME280;21187;50.976;13.720;2023-05-22T02:46:19;98249.53;;;18.37;48.55
34983;BME280;21187;50.976;13.720;2023-05-22T02:51:21;98249.53;;;18.37;48.62
34983;BME280;21187;50.976;13.720;2023-05-22T02:56:24;98244.00;;;18.41;48.63
34983;BME280;21187;50.976;13.720;2023-05-22T03:01:28;98242.41;;;18.43;48.64
34983;BME280;21187;50.976;13.720;2023-05-22T03:06:32;98234.59;;;18.45;48.73
34983;BME280;21187;50.976;13.720;2023-05-22T03:11:36;98237.31;;;18.45;48.83
34983;BME280;21187;50.976;13.720;2023-05-22T03:16:38;98233.81;;;18.45;48.92
34983;BME280;21187;50.976;13.720;2023-05-22T03:21:41;98229.09;;;18.45;48.92
34983;BME280;21187;50.976;13.720;2023-05-22T03:26:47;98229.50;;;18.48;49.07
34983;BME280;21187;50.976;13.720;2023-05-22T03:31:55;98219.69;;;18.46;48.95
34983;BME280;21187;50.976;13.720;2023-05-22T03:36:58;98218.91;;;18.46;48.96
34983;BME280;21187;50.976;13.720;2023-05-22T03:42:01;98217.75;;;18.43;49.05
34983;BME280;21187;50.976;13.720;2023-05-22T03:47:03;98215.78;;;18.48;49.31
34983;BME280;21187;50.976;13.720;2023-05-22T03:52:08;98218.06;;;18.56;49.28
34983;BME280;21187;50.976;13.720;2023-05-22T03:57:11;98212.91;;;18.62;49.42
34983;BME280;21187;50.976;13.720;2023-05-22T04:02:12;98214.06;;;18.68;49.25
34983;BME280;21187;50.976;13.720;2023-05-22T04:07:17;98223.00;;;18.76;49.27
34983;BME280;21187;50.976;13.720;2023-05-22T04:12:20;98212.03;;;18.79;49.43
34983;BME280;21187;50.976;13.720;2023-05-22T04:17:27;98214.72;;;18.83;49.51
34983;BME280;21187;50.976;13.720;2023-05-22T04:22:31;98214.28;;;18.92;49.37
34983;BME280;21187;50.976;13.720;2023-05-22T04:27:33;98214.25;;;18.99;49.44
34983;BME280;21187;50.976;13.720;2023-05-22T04:32:36;98217.34;;;19.05;49.66
34983;BME280;21187;50.976;13.720;2023-05-22T04:37:38;98218.41;;;19.15;49.56
34983;BME280;21187;50.976;13.720;2023-05-22T04:42:46;98226.16;;;19.27;49.57
34983;BME280;21187;50.976;13.720;2023-05-22T04:47:48;98225.44;;;19.19;49.87
34983;BME280;21187;50.976;13.720;2023-05-22T04:52:50;98221.88;;;19.22;49.86
34983;BME280;21187;50.976;13.720;2023-05-22T04:57:52;98223.41;;;19.27;50.01
34983;BME280;21187;50.976;13.720;2023-05-22T05:02:54;98219.84;;;19.30;49.86
34983;BME280;21187;50.976;13.720;2023-05-22T05:07:58;98227.19;;;19.40;49.84
34983;BME280;21187;50.976;13.720;2023-05-22T05:13:00;98219.63;;;19.52;49.68
34983;BME280;21187;50.976;13.720;2023-05-22T05:18:03;98224.94;;;19.66;49.44
34983;BME280;21187;50.976;13.720;2023-05-22T05:23:05;98228.38;;;19.81;49.25
34983;BME280;21187;50.976;13.720;2023-05-22T05:28:08;98228.59;;;19.94;49.17
34983;BME280;21187;50.976;13.720;2023-05-22T05:33:15;98230.44;;;20.04;49.19
34983;BME280;21187;50.976;13.720;2023-05-22T05:38:40;98241.69;;;20.14;49.34
34983;BME280;21187;50.976;13.720;2023-05-22T05:43:42;98233.25;;;20.28;49.01
34983;BME280;21187;50.976;13.720;2023-05-22T05:48:45;98235.09;;;20.38;49.08
34983;BME280;21187;50.976;13.720;2023-05-22T05:53:48;98231.78;;;20.51;48.93
34983;BME280;21187;50.976;13.720;2023-05-22T05:58:51;98239.81;;;20.65;48.88
34983;BME280;21187;50.976;13.720;2023-05-22T06:04:14;98228.19;;;20.81;48.92
34983;BME280;21187;50.976;13.720;2023-05-22T06:09:19;98226.50;;;20.91;48.59
34983;BME280;21187;50.976;13.720;2023-05-22T06:14:41;98229.00;;;21.05;48.56
34983;BME280;21187;50.976;13.720;2023-05-22T06:19:43;98216.47;;;21.24;48.55
34983;BME280;21187;50.976;13.720;2023-05-22T06:24:46;98216.59;;;21.41;48.16
34983;BME280;21187;50.976;13.720;2023-05-22T06:29:53;98219.09;;;21.55;48.34
34983;BME280;21187;50.976;13.720;2023-05-22T06:34:58;98219.47;;;21.77;48.18
34983;BME280;21187;50.976;13.720;2023-05-22T06:40:01;98216.09;;;22.06;48.12
34983;BME280;21187;50.976;13.720;2023-05-22T06:45:13;98219.88;;;22.33;47.79
34983;BME280;21187;50.976;13.720;2023-05-22T06:50:25;98216.25;;;22.56;47.52
34983;BME280;21187;50.976;13.720;2023-05-22T06:55:28;98217.72;;;22.77;47.26
34983;BME280;21187;50.976;13.720;2023-05-22T07:00:39;98217.19;;;22.99;46.66
34983;BME280;21187;50.976;13.720;2023-05-22T07:05:47;98226.72;;;23.14;46.41
34983;BME280;21187;50.976;13.720;2023-05-22T07:10:49;98218.41;;;23.31;46.07
34983;BME280;21187;50.976;13.720;2023-05-22T07:15:52;98224.13;;;23.53;45.72
34983;BME280;21187;50.976;13.720;2023-05-22T07:20:54;98218.47;;;23.86;45.11
34983;BME280;21187;50.976;13.720;2023-05-22T07:25:57;98213.63;;;24.19;44.46
34983;BME280;21187;50.976;13.720;2023-05-22T07:31:06;98217.16;;;24.46;44.18
34983;BME280;21187;50.976;13.720;2023-05-22T07:36:08;98216.72;;;24.73;43.50
34983;BME280;21187;50.976;13.720;2023-05-22T07:41:12;98204.19;;;24.94;43.53
34983;BME280;21187;50.976;13.720;2023-05-22T07:46:14;98199.72;;;25.09;42.87
34983;BME280;21187;50.976;13.720;2023-05-22T07:51:28;98202.19;;;25.30;42.53
34983;BME280;21187;50.976;13.720;2023-05-22T07:56:31;98194.28;;;25.54;42.36
34983;BME280;21187;50.976;13.720;2023-05-22T08:01:34;98188.84;;;25.72;41.59
34983;BME280;21187;50.976;13.720;2023-05-22T08:06:38;98186.13;;;25.82;41.33
34983;BME280;21187;50.976;13.720;2023-05-22T08:11:40;98178.81;;;25.97;40.79
34983;BME280;21187;50.976;13.720;2023-05-22T08:16:43;98188.75;;;26.07;40.54
34983;BME280;21187;50.976;13.720;2023-05-22T08:21:45;98184.84;;;26.27;40.44
34983;BME280;21187;50.976;13.720;2023-05-22T08:26:47;98186.13;;;26.45;40.15
34983;BME280;21187;50.976;13.720;2023-05-22T08:31:49;98172.91;;;26.49;39.68
34983;BME280;21187;50.976;13.720;2023-05-22T08:36:52;98181.84;;;26.53;39.37
34983;BME280;21187;50.976;13.720;2023-05-22T08:41:54;98186.84;;;26.67;38.87
34983;BME280;21187;50.976;13.720;2023-05-22T08:46:59;98165.91;;;26.85;38.17
34983;BME280;21187;50.976;13.720;2023-05-22T08:52:18;98164.09;;;27.00;37.68
34983;BME280;21187;50.976;13.720;2023-05-22T08:57:22;98163.00;;;27.07;38.44
34983;BME280;21187;50.976;13.720;2023-05-22T09:02:25;98159.44;;;27.16;37.39
34983;BME280;21187;50.976;13.720;2023-05-22T09:07:27;98171.63;;;27.28;36.58
34983;BME280;21187;50.976;13.720;2023-05-22T09:12:30;98167.50;;;27.51;35.48
34983;BME280;21187;50.976;13.720;2023-05-22T09:17:33;98161.91;;;27.69;34.91
34983;BME280;21187;50.976;13.720;2023-05-22T09:22:35;98159.69;;;27.92;33.74
34983;BME280;21187;50.976;13.720;2023-05-22T09:27:44;98153.16;;;28.14;33.27
34983;BME280;21187;50.976;13.720;2023-05-22T09:32:49;98147.91;;;28.40;32.66
34983;BME280;21187;50.976;13.720;2023-05-22T09:37:51;98151.66;;;28.70;31.81
34983;BME280;21187;50.976;13.720;2023-05-22T09:42:53;98156.31;;;28.88;31.82
34983;BME280;21187;50.976;13.720;2023-05-22T09:47:55;98157.31;;;29.00;31.82
34983;BME280;21187;50.976;13.720;2023-05-22T09:53:00;98138.97;;;29.09;31.42
34983;BME280;21187;50.976;13.720;2023-05-22T09:58:05;98131.09;;;29.31;31.30
34983;BME280;21187;50.976;13.720;2023-05-22T10:03:10;98144.56;;;29.48;31.49
34983;BME280;21187;50.976;13.720;2023-05-22T10:08:24;98127.81;;;29.63;30.99
34983;BME280;21187;50.976;13.720;2023-05-22T10:13:27;98130.31;;;29.76;31.26
34983;BME280;21187;50.976;13.720;2023-05-22T10:18:29;98128.03;;;29.59;31.73
34983;BME280;21187;50.976;13.720;2023-05-22T10:23:31;98124.53;;;29.34;32.13
34983;BME280;21187;50.976;13.720;2023-05-22T10:29:03;98120.00;;;29.22;32.17
34983;BME280;21187;50.976;13.720;2023-05-22T10:34:11;98112.88;;;29.21;32.49
34983;BME280;21187;50.976;13.720;2023-05-22T10:44:47;98116.66;;;29.33;32.25
34983;BME280;21187;50.976;13.720;2023-05-22T10:50:02;98114.53;;;29.43;31.67
34983;BME280;21187;50.976;13.720;2023-05-22T10:55:06;98112.13;;;29.35;31.34
34983;BME280;21187;50.976;13.720;2023-05-22T11:00:11;98096.66;;;29.34;31.47
34983;BME280;21187;50.976;13.720;2023-05-22T11:10:26;98090.31;;;29.34;31.51
34983;BME280;21187;50.976;13.720;2023-05-22T11:15:48;98093.34;;;29.21;31.10
34983;BME280;21187;50.976;13.720;2023-05-22T11:20:52;98089.97;;;29.17;31.26
34983;BME280;21187;50.976;13.720;2023-05-22T11:25:54;98094.41;;;29.24;31.22
34983;BME280;21187;50.976;13.720;2023-05-22T11:30:56;98085.09;;;29.71;30.53
34983;BME280;21187;50.976;13.720;2023-05-22T11:35:59;98075.06;;;29.80;30.50
34983;BME280;21187;50.976;13.720;2023-05-22T11:41:02;98074.22;;;29.74;30.44
34983;BME280;21187;50.976;13.720;2023-05-22T11:46:13;98059.28;;;29.77;30.31
34983;BME280;21187;50.976;13.720;2023-05-22T11:51:18;98055.53;;;29.80;30.04
34983;BME280;21187;50.976;13.720;2023-05-22T11:56:21;98061.22;;;29.85;30.20
34983;BME280;21187;50.976;13.720;2023-05-22T12:01:23;98066.22;;;29.96;29.90
34983;BME280;21187;50.976;13.720;2023-05-22T12:06:25;98067.78;;;30.18;29.60
34983;BME280;21187;50.976;13.720;2023-05-22T12:11:27;98056.91;;;30.20;29.22
34983;BME280;21187;50.976;13.720;2023-05-22T12:16:35;98045.00;;;30.04;29.21
34983;BME280;21187;50.976;13.720;2023-05-22T12:21:38;98051.72;;;30.13;29.15
34983;BME280;21187;50.976;13.720;2023-05-22T12:26:48;98034.13;;;30.27;29.00
34983;BME280;21187;50.976;13.720;2023-05-22T12:31:50;98048.97;;;30.33;28.67
34983;BME280;21187;50.976;13.720;2023-05-22T12:36:52;98044.91;;;30.34;28.93
34983;BME280;21187;50.976;13.720;2023-05-22T12:41:54;98037.34;;;30.41;28.71
34983;BME280;21187;50.976;13.720;2023-05-22T12:46:56;98040.03;;;30.50;28.72
34983;BME280;21187;50.976;13.720;2023-05-22T12:51:58;98048.56;;;30.61;28.14
34983;BME280;21187;50.976;13.720;2023-05-22T12:57:00;98033.84;;;30.61;28.41
34983;BME280;21187;50.976;13.720;2023-05-22T13:02:04;98018.13;;;30.63;28.51
34983;BME280;21187;50.976;13.720;2023-05-22T13:07:06;98022.84;;;30.57;28.25
34983;BME280;21187;50.976;13.720;2023-05-22T13:12:09;98031.56;;;30.44;28.49
34983;BME280;21187;50.976;13.720;2023-05-22T13:17:12;98020.28;;;30.53;28.52
34983;BME280;21187;50.976;13.720;2023-05-22T13:22:14;98011.25;;;30.64;28.20
34983;BME280;21187;50.976;13.720;2023-05-22T13:27:17;97998.53;;;30.63;28.44
34983;BME280;21187;50.976;13.720;2023-05-22T13:32:19;98011.03;;;30.68;28.56
34983;BME280;21187;50.976;13.720;2023-05-22T13:37:21;98003.97;;;30.73;28.16
34983;BME280;21187;50.976;13.720;2023-05-22T13:42:24;97992.50;;;30.70;28.72
34983;BME280;21187;50.976;13.720;2023-05-22T13:47:26;97990.00;;;30.73;28.24
34983;BME280;21187;50.976;13.720;2023-05-22T13:52:28;97988.47;;;30.72;28.19
34983;BME280;21187;50.976;13.720;2023-05-22T13:57:30;97982.31;;;30.67;28.58
34983;BME280;21187;50.976;13.720;2023-05-22T14:02:32;97978.69;;;30.61;28.69
34983;BME280;21187;50.976;13.720;2023-05-22T14:07:34;97972.97;;;30.50;28.59
34983;BME280;21187;50.976;13.720;2023-05-22T14:12:37;97975.50;;;30.48;28.82
34983;BME280;21187;50.976;13.720;2023-05-22T14:17:38;97970.09;;;30.44;28.41
34983;BME280;21187;50.976;13.720;2023-05-22T14:22:41;97963.47;;;30.42;28.75
34983;BME280;21187;50.976;13.720;2023-05-22T14:27:57;97958.03;;;30.32;28.44
34983;BME280;21187;50.976;13.720;2023-05-22T14:32:59;97953.44;;;30.29;28.73
34983;BME280;21187;50.976;13.720;2023-05-22T14:38:01;97959.41;;;30.22;28.34
34983;BME280;21187;50.976;13.720;2023-05-22T14:43:04;97962.16;;;30.16;28.46
34983;BME280;21187;50.976;13.720;2023-05-22T14:48:06;97955.25;;;30.12;28.73
34983;BME280;21187;50.976;13.720;2023-05-22T14:53:11;97947.56;;;30.07;28.39
34983;BME280;21187;50.976;13.720;2023-05-22T14:58:13;97950.22;;;29.95;28.55
34983;BME280;21187;50.976;13.720;2023-05-22T15:03:15;97948.97;;;29.81;28.57
34983;BME280;21187;50.976;13.720;2023-05-22T15:08:19;97947.66;;;29.77;29.17
34983;BME280;21187;50.976;13.720;2023-05-22T15:13:21;97943.06;;;29.74;29.05
34983;BME280;21187;50.976;13.720;2023-05-22T15:18:23;97940.78;;;29.57;28.83
34983;BME280;21187;50.976;13.720;2023-05-22T15:23:27;97932.53;;;29.48;29.09
34983;BME280;21187;50.976;13.720;2023-05-22T15:28:29;97929.84;;;29.38;29.05
34983;BME280;21187;50.976;13.720;2023-05-22T15:33:31;97923.34;;;29.27;29.09
34983;BME280;21187;50.976;13.720;2023-05-22T15:38:34;97920.34;;;29.15;28.95
34983;BME280;21187;50.976;13.720;2023-05-22T15:43:36;97920.66;;;29.02;29.22
34983;BME280;21187;50.976;13.720;2023-05-22T15:48:38;97925.06;;;28.94;29.31
34983;BME280;21187;50.976;13.720;2023-05-22T15:53:40;97929.50;;;28.86;29.42
34983;BME280;21187;50.976;13.720;2023-05-22T15:58:42;97921.41;;;28.73;29.24
34983;BME280;21187;50.976;13.720;2023-05-22T16:03:44;97909.28;;;28.61;29.37
34983;BME280;21187;50.976;13.720;2023-05-22T16:08:46;97904.09;;;28.54;29.58
34983;BME280;21187;50.976;13.720;2023-05-22T16:13:48;97911.94;;;28.41;29.61
34983;BME280;21187;50.976;13.720;2023-05-22T16:18:50;97908.66;;;28.27;29.84
34983;BME280;21187;50.976;13.720;2023-05-22T16:23:52;97903.63;;;28.16;29.70
34983;BME280;21187;50.976;13.720;2023-05-22T16:28:54;97913.59;;;28.08;30.00
34983;BME280;21187;50.976;13.720;2023-05-22T16:33:56;97907.59;;;28.00;29.91
34983;BME280;21187;50.976;13.720;2023-05-22T16:38:58;97898.38;;;27.94;30.15
34983;BME280;21187;50.976;13.720;2023-05-22T16:44:00;97904.13;;;27.90;30.43
34983;BME280;21187;50.976;13.720;2023-05-22T16:49:02;97903.53;;;27.86;30.59
34983;BME280;21187;50.976;13.720;2023-05-22T16:54:04;97905.72;;;27.82;30.77
34983;BME280;21187;50.976;13.720;2023-05-22T16:59:06;97902.53;;;27.75;30.96
34983;BME280;21187;50.976;13.720;2023-05-22T17:04:08;97905.34;;;27.65;30.88
34983;BME280;21187;50.976;13.720;2023-05-22T17:09:15;97909.59;;;27.51;31.10
34983;BME280;21187;50.976;13.720;2023-05-22T17:14:18;97911.06;;;27.37;31.42
34983;BME280;21187;50.976;13.720;2023-05-22T17:19:24;97896.09;;;27.26;31.42
34983;BME280;21187;50.976;13.720;2023-05-22T17:24:27;97896.63;;;27.15;31.37
34983;BME280;21187;50.976;13.720;2023-05-22T17:29:30;97899.13;;;27.03;31.69
34983;BME280;21187;50.976;13.720;2023-05-22T17:34:32;97893.59;;;26.94;31.74
34983;BME280;21187;50.976;13.720;2023-05-22T17:39:35;97897.63;;;26.84;32.07
34983;BME280;21187;50.976;13.720;2023-05-22T17:44:38;97900.44;;;26.74;31.96
34983;BME280;21187;50.976;13.720;2023-05-22T17:49:40;97904.28;;;26.68;32.16
34983;BME280;21187;50.976;13.720;2023-05-22T17:54:43;97907.84;;;26.59;32.24
34983;BME280;21187;50.976;13.720;2023-05-22T17:59:45;97907.38;;;26.51;32.44
34983;BME280;21187;50.976;13.720;2023-05-22T18:04:48;97910.94;;;26.43;32.73
34983;BME280;21187;50.976;13.720;2023-05-22T18:09:50;97911.25;;;26.35;32.81
34983;BME280;21187;50.976;13.720;2023-05-22T18:14:53;97902.47;;;26.28;32.96
34983;BME280;21187;50.976;13.720;2023-05-22T18:19:55;97901.69;;;26.18;32.94
34983;BME280;21187;50.976;13.720;2023-05-22T18:24:58;97890.31;;;26.06;32.99
34983;BME280;21187;50.976;13.720;2023-05-22T18:30:02;97880.41;;;25.96;33.28
34983;BME280;21187;50.976;13.720;2023-05-22T18:35:06;97885.94;;;25.87;33.21
34983;BME280;21187;50.976;13.720;2023-05-22T18:40:10;97884.06;;;25.74;33.36
34983;BME280;21187;50.976;13.720;2023-05-22T18:45:12;97880.03;;;25.66;33.29
34983;BME280;21187;50.976;13.720;2023-05-22T18:50:15;97889.88;;;25.58;33.35
34983;BME280;21187;50.976;13.720;2023-05-22T18:55:18;97895.41;;;25.49;33.39
34983;BME280;21187;50.976;13.720;2023-05-22T19:00:20;97896.16;;;25.40;33.48
34983;BME280;21187;50.976;13.720;2023-05-22T19:05:23;97905.94;;;25.32;33.96
34983;BME280;21187;50.976;13.720;2023-05-22T19:10:26;97899.91;;;25.24;33.84
34983;BME280;21187;50.976;13.720;2023-05-22T19:15:28;97906.63;;;25.14;34.32
34983;BME280;21187;50.976;13.720;2023-05-22T19:20:30;97903.19;;;25.00;34.50
34983;BME280;21187;50.976;13.720;2023-05-22T19:25:32;97909.28;;;24.86;34.60
34983;BME280;21187;50.976;13.720;2023-05-22T19:30:34;97914.28;;;24.78;34.83
34983;BME280;21187;50.976;13.720;2023-05-22T19:35:36;97913.78;;;24.70;34.88
34983;BME280;21187;50.976;13.720;2023-05-22T19:40:39;97901.53;;;24.58;34.94
34983;BME280;21187;50.976;13.720;2023-05-22T19:45:41;97908.69;;;24.47;35.31
34983;BME280;21187;50.976;13.720;2023-05-22T19:50:43;97910.28;;;24.35;35.32
34983;BME280;21187;50.976;13.720;2023-05-22T19:55:45;97929.16;;;24.27;35.43
34983;BME280;21187;50.976;13.720;2023-05-22T20:00:48;97929.38;;;24.20;35.77
34983;BME280;21187;50.976;13.720;2023-05-22T20:05:50;97916.22;;;24.11;35.97
34983;BME280;21187;50.976;13.720;2023-05-22T20:10:54;97929.56;;;24.03;36.08
34983;BME280;21187;50.976;13.720;2023-05-22T20:15:56;97925.16;;;23.93;36.06
34983;BME280;21187;50.976;13.720;2023-05-22T20:20:58;97916.75;;;23.84;35.99
34983;BME280;21187;50.976;13.720;2023-05-22T20:25:59;97917.09;;;23.73;36.05
34983;BME280;21187;50.976;13.720;2023-05-22T20:31:02;97915.00;;;23.64;36.23
34983;BME280;21187;50.976;13.720;2023-05-22T20:36:05;97915.56;;;23.59;36.25
34983;BME280;21187;50.976;13.720;2023-05-22T20:41:07;97919.22;;;23.56;36.43
34983;BME280;21187;50.976;13.720;2023-05-22T20:46:10;97911.47;;;23.51;36.90
34983;BME280;21187;50.976;13.720;2023-05-22T20:51:13;97903.09;;;23.41;37.16
34983;BME280;21187;50.976;13.720;2023-05-22T20:56:21;97900.53;;;23.34;37.28
34983;BME280;21187;50.976;13.720;2023-05-22T21:01:23;97895.56;;;23.29;37.30
34983;BME280;21187;50.976;13.720;2023-05-22T21:06:25;97898.56;;;23.22;37.62
34983;BME280;21187;50.976;13.720;2023-05-22T21:11:27;97902.22;;;23.19;37.66
34983;BME280;21187;50.976;13.720;2023-05-22T21:16:29;97899.06;;;23.04;37.84
34983;BME280;21187;50.976;13.720;2023-05-22T21:21:31;97897.25;;;22.71;38.37
34983;BME280;21187;50.976;13.720;2023-05-22T21:26:33;97884.00;;;22.66;38.45
34983;BME280;21187;50.976;13.720;2023-05-22T21:31:36;97893.50;;;22.65;38.58
34983;BME280;21187;50.976;13.720;2023-05-22T21:36:38;97890.38;;;22.63;38.57
34983;BME280;21187;50.976;13.720;2023-05-22T21:41:40;97883.34;;;22.62;38.52
34983;BME280;21187;50.976;13.720;2023-05-22T21:46:41;97882.63;;;22.58;38.73
34983;BME280;21187;50.976;13.720;2023-05-22T21:51:43;97882.19;;;22.47;39.15
34983;BME280;21187;50.976;13.720;2023-05-22T21:56:45;97879.97;;;22.41;39.30
34983;BME280;21187;50.976;13.720;2023-05-22T22:01:48;97882.03;;;22.37;39.41
34983;BME280;21187;50.976;13.720;2023-05-22T22:06:49;97887.72;;;22.30;39.64
34983;BME280;21187;50.976;13.720;2023-05-22T22:11:51;97887.91;;;22.23;39.87
34983;BME280;21187;50.976;13.720;2023-05-22T22:16:53;97895.59;;;21.86;40.90
34983;BME280;21187;50.976;13.720;2023-05-22T22:21:55;97897.94;;;21.18;42.45
34983;BME280;21187;50.976;13.720;2023-05-22T22:26:57;97894.63;;;20.90;42.95
34983;BME280;21187;50.976;13.720;2023-05-22T22:31:59;97888.72;;;20.71;43.42
34983;BME280;21187;50.976;13.720;2023-05-22T22:37:01;97886.84;;;20.85;43.02
34983;BME280;21187;50.976;13.720;2023-05-22T22:42:03;97878.72;;;21.14;42.28
34983;BME280;21187;50.976;13.720;2023-05-22T22:47:05;97886.53;;;21.36;41.99
34983;BME280;21187;50.976;13.720;2023-05-22T22:52:08;97896.75;;;21.35;41.87
34983;BME280;21187;50.976;13.720;2023-05-22T22:57:10;97895.03;;;21.41;41.95
34983;BME280;21187;50.976;13.720;2023-05-22T23:02:11;97894.34;;;21.37;42.05
34983;BME280;21187;50.976;13.720;2023-05-22T23:07:13;97888.56;;;21.15;42.91
34983;BME280;21187;50.976;13.720;2023-05-22T23:12:15;97887.75;;;20.98;43.12
34983;BME280;21187;50.976;13.720;2023-05-22T23:17:17;97876.09;;;21.10;42.91
34983;BME280;21187;50.976;13.720;2023-05-22T23:22:19;97875.75;;;21.25;42.94
34983;BME280;21187;50.976;13.720;2023-05-22T23:27:21;97878.16;;;21.23;42.96
34983;BME280;21187;50.976;13.720;2023-05-22T23:32:23;97870.16;;;21.28;42.84
34983;BME280;21187;50.976;13.720;2023-05-22T23:37:25;97879.53;;;21.31;43.09
34983;BME280;21187;50.976;13.720;2023-05-22T23:42:27;97881.69;;;21.40;42.94
34983;BME280;21187;50.976;13.720;2023-05-22T23:47:29;97881.63;;;21.43;42.82
34983;BME280;21187;50.976;13.720;2023-05-22T23:52:32;97872.91;;;21.45;43.24
34983;BME280;21187;50.976;13.720;2023-05-22T23:57:34;97860.59;;;21.50;43.01
